createdAt,value
2023-08-07T00:02:55.797Z,65.28
2023-08-07T00:05:57.362Z,65.11
2023-08-07T00:08:58.899Z,65.21
2023-08-07T00:12:00.543Z,65.21
2023-08-07T00:15:03.489Z,65.09
2023-08-07T00:18:05.224Z,65.02
2023-08-07T00:21:06.768Z,65.29
2023-08-07T00:24:08.332Z,65.45
2023-08-07T00:27:11.611Z,65.49
2023-08-07T00:30:13.171Z,65.12
2023-08-07T00:33:14.701Z,65.17
2023-08-07T00:36:17.487Z,64.99
2023-08-07T00:39:19.052Z,65.14
2023-08-07T00:42:20.681Z,64.89
2023-08-07T00:45:22.382Z,64.81
2023-08-07T00:48:24.057Z,64.99
2023-08-07T00:51:25.652Z,65.43
2023-08-07T00:54:27.437Z,64.78
2023-08-07T00:57:29.224Z,65.16
2023-08-07T01:00:31.534Z,64.83
2023-08-07T01:03:33.411Z,64.89
2023-08-07T01:06:35.623Z,65.03
2023-08-07T01:09:37.286Z,65.04
2023-08-07T01:12:49.449Z,65.08
2023-08-07T01:15:56.755Z,64.85
2023-08-07T01:19:01.850Z,65.02
2023-08-07T01:22:07.300Z,65.27
2023-08-07T01:25:10.124Z,64.99
2023-08-07T01:28:25.514Z,65.21
2023-08-07T01:31:32.797Z,65.04
2023-08-07T01:34:37.472Z,64.94
2023-08-07T01:37:42.212Z,65.19
2023-08-07T01:40:45.151Z,65.31
2023-08-07T01:43:47.192Z,65.03
2023-08-07T01:46:48.856Z,65.20
2023-08-07T01:49:50.442Z,65.29
2023-08-07T01:52:52.594Z,65.17
2023-08-07T01:55:54.211Z,65.51
2023-08-07T01:58:55.803Z,65.14
2023-08-07T02:01:57.439Z,65.17
2023-08-07T02:04:59.214Z,65.29
2023-08-07T02:08:00.886Z,65.37
2023-08-07T02:11:03.821Z,65.36
2023-08-07T02:14:05.430Z,65.68
2023-08-07T02:17:07.037Z,65.43
2023-08-07T02:20:09.302Z,65.29
2023-08-07T02:23:10.839Z,65.35
2023-08-07T02:26:12.402Z,65.34
2023-08-07T02:29:13.985Z,65.43
2023-08-07T02:32:15.570Z,65.36
2023-08-07T02:35:17.287Z,65.65
2023-08-07T02:38:19.065Z,65.22
2023-08-07T02:41:21.506Z,65.56
2023-08-07T02:44:23.076Z,65.42
2023-08-07T02:47:24.727Z,65.18
2023-08-07T02:50:28.583Z,65.43
2023-08-07T02:53:30.200Z,65.38
2023-08-07T02:56:31.866Z,65.22
2023-08-07T02:59:33.445Z,65.08
2023-08-07T03:02:35.117Z,65.25
2023-08-07T03:05:36.677Z,65.26
2023-08-07T03:08:38.270Z,65.48
2023-08-07T03:11:39.804Z,65.45
2023-08-07T03:14:41.433Z,64.98
2023-08-07T03:17:43.305Z,65.42
2023-08-07T03:20:45.443Z,65.33
2023-08-07T03:23:47.141Z,65.27
2023-08-07T03:26:50.178Z,65.52
2023-08-07T03:29:52.049Z,65.21
2023-08-07T03:32:54.824Z,65.60
2023-08-07T03:35:56.968Z,65.64
2023-08-07T03:38:58.982Z,65.52
2023-08-07T03:42:00.754Z,65.46
2023-08-07T03:45:02.435Z,65.64
2023-08-07T03:48:04.206Z,65.64
2023-08-07T03:51:09.115Z,65.59
2023-08-07T03:54:15.057Z,65.44
2023-08-07T03:57:16.644Z,65.61
2023-08-07T04:00:18.436Z,65.38
2023-08-07T04:03:21.331Z,65.58
2023-08-07T04:06:23.050Z,65.55
2023-08-07T04:09:24.917Z,65.63
2023-08-07T04:12:26.531Z,65.54
2023-08-07T04:15:28.183Z,65.44
2023-08-07T04:18:30.127Z,65.43
2023-08-07T04:21:31.926Z,65.54
2023-08-07T04:24:33.553Z,65.30
2023-08-07T04:27:35.089Z,65.72
2023-08-07T04:30:36.664Z,66.04
2023-08-07T04:33:38.274Z,65.74
2023-08-07T04:36:39.824Z,65.76
2023-08-07T04:39:41.407Z,65.82
2023-08-07T04:42:42.973Z,65.75
2023-08-07T04:45:46.304Z,65.78
2023-08-07T04:48:49.458Z,65.63
2023-08-07T04:51:51.028Z,65.63
2023-08-07T04:54:52.615Z,65.94
2023-08-07T04:57:55.583Z,65.75
2023-08-07T05:00:58.108Z,65.73
2023-08-07T05:04:00.320Z,65.40
2023-08-07T05:07:02.078Z,65.69
2023-08-07T05:10:04.066Z,65.48
2023-08-07T05:13:05.645Z,65.47
2023-08-07T05:16:07.338Z,65.66
2023-08-07T05:19:09.126Z,65.29
2023-08-07T05:22:10.713Z,65.66
2023-08-07T05:25:16.642Z,65.50
2023-08-07T05:28:18.282Z,65.51
2023-08-07T05:31:19.953Z,65.11
2023-08-07T05:34:21.908Z,65.26
2023-08-07T05:37:23.493Z,65.18
2023-08-07T05:40:25.032Z,64.86
2023-08-07T05:43:26.575Z,64.86
2023-08-07T05:46:28.242Z,65.05
2023-08-07T05:49:29.783Z,65.03
2023-08-07T05:52:31.338Z,65.08
2023-08-07T05:55:32.983Z,65.07
2023-08-07T05:58:34.545Z,64.90
2023-08-07T06:01:37.998Z,65.21
2023-08-07T06:04:39.946Z,64.85
2023-08-07T06:07:41.550Z,65.12
2023-08-07T06:10:43.094Z,65.17
2023-08-07T06:13:44.696Z,65.03
2023-08-07T06:16:46.645Z,64.69
2023-08-07T06:19:48.313Z,65.05
2023-08-07T06:22:49.868Z,64.83
2023-08-07T06:25:55.422Z,64.35
2023-08-07T06:28:59.278Z,64.99
2023-08-07T06:32:01.118Z,64.90
2023-08-07T06:35:03.690Z,64.54
2023-08-07T06:38:05.583Z,64.58
2023-08-07T06:41:07.220Z,64.66
2023-08-07T06:44:08.852Z,64.81
2023-08-07T06:47:11.172Z,65.00
2023-08-07T06:50:14.945Z,64.57
2023-08-07T06:53:17.008Z,64.47
2023-08-07T06:56:19.047Z,64.77
2023-08-07T06:59:20.626Z,65.10
2023-08-07T07:02:22.352Z,64.67
2023-08-07T07:05:23.961Z,64.73
2023-08-07T07:08:25.583Z,64.80
2023-08-07T07:11:27.159Z,64.84
2023-08-07T07:14:28.716Z,65.11
2023-08-07T07:17:30.326Z,64.77
2023-08-07T07:20:32.227Z,64.95
2023-08-07T07:23:33.755Z,64.80
2023-08-07T07:26:35.323Z,64.66
2023-08-07T07:29:36.943Z,64.67
2023-08-07T07:32:38.569Z,64.60
2023-08-07T07:35:40.359Z,64.60
2023-08-07T07:38:43.123Z,64.56
2023-08-07T07:41:45.829Z,64.85
2023-08-07T07:44:47.407Z,64.84
2023-08-07T07:47:49.019Z,64.91
2023-08-07T07:50:50.572Z,65.15
2023-08-07T07:54:11.954Z,65.18
2023-08-07T07:57:13.844Z,64.91
2023-08-07T08:00:15.810Z,64.69
2023-08-07T08:03:17.470Z,64.81
2023-08-07T08:06:19.298Z,64.92
2023-08-07T08:09:20.843Z,65.01
2023-08-07T08:12:22.993Z,64.95
2023-08-07T08:15:25.472Z,64.86
2023-08-07T08:18:27.234Z,64.92
2023-08-07T08:21:29.051Z,65.07
2023-08-07T08:24:32.551Z,64.85
2023-08-07T08:27:34.125Z,64.91
2023-08-07T08:30:35.799Z,65.15
2023-08-07T08:33:37.412Z,64.81
2023-08-07T08:36:39.006Z,64.68
2023-08-07T08:39:40.595Z,65.08
2023-08-07T08:42:42.588Z,65.13
2023-08-07T08:45:45.147Z,65.00
2023-08-07T08:48:57.500Z,65.08
2023-08-07T08:52:00.061Z,65.04
2023-08-07T08:55:02.700Z,64.75
2023-08-07T08:58:05.121Z,64.90
2023-08-07T09:01:07.961Z,65.22
2023-08-07T09:04:11.157Z,65.40
2023-08-07T09:07:20.982Z,65.16
2023-08-07T09:10:24.378Z,65.56
2023-08-07T09:13:29.308Z,65.00
2023-08-07T09:16:32.303Z,64.74
2023-08-07T09:19:34.233Z,64.45
2023-08-07T09:22:36.210Z,63.77
2023-08-07T09:25:37.852Z,63.80
2023-08-07T09:28:39.737Z,63.66
2023-08-07T09:31:46.481Z,63.95
2023-08-07T09:34:49.947Z,64.12
2023-08-07T09:37:52.002Z,64.15
2023-08-07T09:40:53.561Z,64.11
2023-08-07T09:43:55.224Z,64.35
2023-08-07T09:46:58.096Z,64.45
2023-08-07T09:49:59.924Z,64.52
2023-08-07T09:53:01.660Z,64.21
2023-08-07T09:56:03.993Z,64.31
2023-08-07T09:59:05.868Z,64.26
2023-08-07T10:02:07.627Z,64.28
2023-08-07T10:05:11.495Z,64.39
2023-08-07T10:08:13.346Z,64.68
2023-08-07T10:11:18.347Z,64.67
2023-08-07T10:14:20.073Z,64.66
2023-08-07T10:17:24.857Z,64.51
2023-08-07T10:20:29.241Z,64.69
2023-08-07T10:23:31.901Z,64.56
2023-08-07T10:26:35.507Z,64.59
2023-08-07T10:29:38.837Z,64.77
2023-08-07T10:32:41.550Z,64.78
2023-08-07T10:35:49.029Z,64.79
2023-08-07T10:38:54.561Z,64.88
2023-08-07T10:41:56.656Z,64.69
2023-08-07T10:45:02.461Z,64.42
2023-08-07T10:48:08.603Z,64.38
2023-08-07T10:51:13.382Z,64.29
2023-08-07T10:54:15.039Z,64.86
2023-08-07T10:57:18.527Z,64.71
2023-08-07T11:00:27.987Z,64.36
2023-08-07T11:03:29.720Z,64.77
2023-08-07T11:06:34.526Z,64.63
2023-08-07T11:09:36.529Z,64.50
2023-08-07T11:12:38.853Z,64.50
2023-08-07T11:15:40.484Z,64.34
2023-08-07T11:18:43.342Z,64.36
2023-08-07T11:21:45.713Z,64.27
2023-08-07T11:24:47.994Z,64.09
2023-08-07T11:27:49.559Z,63.81
2023-08-07T11:30:54.195Z,64.07
2023-08-07T11:34:03.505Z,63.99
2023-08-07T11:37:05.101Z,64.28
2023-08-07T11:40:07.572Z,64.12
2023-08-07T11:43:10.708Z,63.87
2023-08-07T11:46:15.146Z,63.98
2023-08-07T11:49:16.822Z,64.09
2023-08-07T11:52:18.643Z,64.01
2023-08-07T11:55:20.268Z,64.21
2023-08-07T11:58:22.994Z,64.69
2023-08-07T12:01:27.161Z,64.08
2023-08-07T12:04:32.655Z,64.39
2023-08-07T12:07:34.269Z,63.83
2023-08-07T12:10:36.580Z,63.94
2023-08-07T12:13:43.395Z,64.16
2023-08-07T12:16:48.979Z,63.87
2023-08-07T12:19:52.111Z,63.85
2023-08-07T12:22:53.871Z,63.31
2023-08-07T12:25:56.180Z,63.17
2023-08-07T12:28:58.227Z,63.17
2023-08-07T12:32:04.272Z,63.24
2023-08-07T12:38:15.721Z,62.48
2023-08-07T12:44:21.891Z,62.36
2023-08-07T12:47:23.469Z,62.04
2023-08-07T12:50:25.144Z,62.65
2023-08-07T12:53:27.029Z,62.36
2023-08-07T12:56:29.075Z,62.61
2023-08-07T12:59:30.739Z,62.14
2023-08-07T13:02:32.371Z,61.78
2023-08-07T13:05:34.788Z,61.99
2023-08-07T13:08:38.665Z,61.92
2023-08-07T13:11:40.758Z,62.23
2023-08-07T13:14:42.301Z,62.01
2023-08-07T13:17:45.042Z,61.71
2023-08-07T13:20:46.788Z,61.73
2023-08-07T13:23:48.251Z,61.67
2023-08-07T13:26:49.757Z,61.37
2023-08-07T13:29:51.275Z,61.20
2023-08-07T13:32:52.775Z,61.00
2023-08-07T13:35:54.272Z,61.46
2023-08-07T13:38:55.764Z,61.39
2023-08-07T13:41:57.592Z,61.66
2023-08-07T13:44:59.617Z,61.79
2023-08-07T13:48:01.515Z,61.76
2023-08-07T13:51:08.009Z,62.46
2023-08-07T13:54:09.644Z,62.19
2023-08-07T13:57:11.204Z,61.87
2023-08-07T14:00:13.581Z,61.78
2023-08-07T14:03:15.310Z,61.99
2023-08-07T14:06:17.101Z,61.44
2023-08-07T14:09:22.565Z,61.23
2023-08-07T14:12:24.084Z,60.88
2023-08-07T14:15:25.878Z,61.51
2023-08-07T14:18:28.047Z,61.82
2023-08-07T14:21:29.542Z,61.33
2023-08-07T14:24:31.134Z,60.37
2023-08-07T14:27:32.678Z,59.42
2023-08-07T14:30:34.264Z,59.38
2023-08-07T14:33:36.516Z,58.91
2023-08-07T14:36:38.074Z,58.97
2023-08-07T14:39:39.665Z,59.09
2023-08-07T14:42:41.255Z,59.24
2023-08-07T14:45:42.860Z,59.49
2023-08-07T14:48:44.380Z,59.29
2023-08-07T14:51:45.944Z,59.48
2023-08-07T14:54:47.563Z,59.84
2023-08-07T14:57:49.116Z,59.91
2023-08-07T15:00:54.394Z,59.80
2023-08-07T15:03:56.033Z,59.36
2023-08-07T15:06:57.765Z,58.70
2023-08-07T15:09:59.320Z,58.65
2023-08-07T15:13:01.547Z,58.49
2023-08-07T15:16:03.128Z,58.96
2023-08-07T15:19:04.761Z,58.35
2023-08-07T15:22:06.458Z,55.77
2023-08-07T15:25:10.506Z,54.38
2023-08-07T15:28:12.142Z,52.96
2023-08-07T15:31:13.687Z,53.15
2023-08-07T15:34:15.219Z,53.17
2023-08-07T15:37:16.770Z,53.23
2023-08-07T15:40:18.362Z,53.14
2023-08-07T15:43:19.858Z,53.28
2023-08-07T15:46:21.433Z,54.26
2023-08-07T15:49:24.121Z,54.69
2023-08-07T15:52:26.667Z,55.27
2023-08-07T15:55:28.715Z,55.72
2023-08-07T15:58:30.234Z,55.99
2023-08-07T16:01:31.837Z,56.12
2023-08-07T16:04:33.398Z,56.44
2023-08-07T16:07:34.907Z,56.27
2023-08-07T16:10:36.577Z,56.67
2023-08-07T16:13:38.102Z,56.63
2023-08-07T16:16:39.757Z,56.92
2023-08-07T16:19:42.018Z,57.11
2023-08-07T16:22:43.653Z,56.89
2023-08-07T16:25:45.190Z,56.96
2023-08-07T16:28:46.967Z,57.13
2023-08-07T16:31:48.642Z,57.13
2023-08-07T16:34:50.230Z,57.37
2023-08-07T16:37:51.790Z,57.26
2023-08-07T16:40:53.358Z,57.26
2023-08-07T16:43:54.859Z,57.07
2023-08-07T16:46:56.741Z,57.75
2023-08-07T16:49:58.890Z,57.46
2023-08-07T16:53:01.136Z,57.34
2023-08-07T16:56:02.732Z,57.35
2023-08-07T16:59:04.292Z,57.57
2023-08-07T17:02:07.968Z,57.76
2023-08-07T17:05:09.684Z,58.12
2023-08-07T17:08:11.167Z,58.22
2023-08-07T17:11:12.971Z,58.67
2023-08-07T17:14:14.557Z,58.74
2023-08-07T17:17:16.087Z,58.75
2023-08-07T17:20:17.656Z,58.97
2023-08-07T17:23:19.199Z,59.27
2023-08-07T17:26:20.694Z,59.30
2023-08-07T17:29:23.475Z,59.29
2023-08-07T17:32:25.037Z,59.40
2023-08-07T17:35:26.622Z,59.15
2023-08-07T17:38:28.436Z,59.18
2023-08-07T17:41:30.494Z,59.60
2023-08-07T17:44:32.018Z,59.37
2023-08-07T17:47:33.673Z,59.38
2023-08-07T17:50:35.242Z,59.53
2023-08-07T17:53:36.860Z,59.36
2023-08-07T17:56:38.434Z,58.60
2023-08-07T17:59:39.986Z,58.05
2023-08-07T18:02:41.744Z,58.09
2023-08-07T18:05:43.395Z,58.47
2023-08-07T18:08:44.916Z,58.96
2023-08-07T18:11:46.419Z,59.37
2023-08-07T18:14:48.036Z,59.83
2023-08-07T18:17:49.709Z,60.17
2023-08-07T18:20:51.272Z,60.15
2023-08-07T18:23:52.776Z,60.30
2023-08-07T18:26:54.324Z,59.83
2023-08-07T18:29:56.068Z,60.16
2023-08-07T18:32:57.714Z,60.01
2023-08-07T18:36:01.113Z,59.91
2023-08-07T18:39:03.163Z,59.84
2023-08-07T18:42:04.940Z,59.98
2023-08-07T18:45:06.992Z,59.77
2023-08-07T18:48:09.166Z,60.09
2023-08-07T18:51:10.830Z,59.66
2023-08-07T18:54:12.333Z,59.85
2023-08-07T18:57:16.485Z,59.45
2023-08-07T19:00:18.558Z,59.60
2023-08-07T19:03:21.149Z,59.37
2023-08-07T19:06:23.198Z,59.10
2023-08-07T19:09:26.215Z,59.13
2023-08-07T19:12:27.830Z,58.33
2023-08-07T19:15:29.449Z,58.06
2023-08-07T19:18:31.498Z,57.92
2023-08-07T19:21:33.019Z,57.83
2023-08-07T19:24:34.812Z,57.75
2023-08-07T19:27:36.298Z,57.54
2023-08-07T19:30:39.350Z,57.27
2023-08-07T19:33:41.946Z,57.24
2023-08-07T19:36:43.582Z,56.75
2023-08-07T19:39:45.237Z,56.92
2023-08-07T19:42:46.765Z,57.20
2023-08-07T19:45:48.479Z,57.29
2023-08-07T19:48:50.228Z,57.26
2023-08-07T19:51:51.787Z,56.68
2023-08-07T19:54:53.374Z,56.32
2023-08-07T19:57:54.992Z,56.93
2023-08-07T20:00:56.735Z,57.46
2023-08-07T20:03:58.461Z,57.02
2023-08-07T20:07:03.835Z,57.22
2023-08-07T20:10:10.665Z,56.59
2023-08-07T20:13:12.317Z,56.37
2023-08-07T20:16:13.958Z,56.22
2023-08-07T20:19:15.628Z,56.35
2023-08-07T20:22:17.492Z,56.32
2023-08-07T20:25:19.190Z,55.58
2023-08-07T20:28:20.776Z,55.80
2023-08-07T20:31:22.435Z,55.84
2023-08-07T20:34:24.536Z,56.20
2023-08-07T20:37:26.827Z,55.60
2023-08-07T20:40:31.301Z,55.62
2023-08-07T20:43:33.306Z,55.70
2023-08-07T20:46:35.066Z,55.87
2023-08-07T20:49:37.153Z,56.08
2023-08-07T20:52:39.109Z,56.22
2023-08-07T20:55:40.650Z,56.38
2023-08-07T20:58:42.337Z,55.92
2023-08-07T21:01:47.908Z,56.24
2023-08-07T21:04:49.631Z,55.98
2023-08-07T21:07:51.322Z,56.04
2023-08-07T21:10:55.808Z,55.74
2023-08-07T21:13:57.846Z,55.72
2023-08-07T21:16:59.648Z,55.73
2023-08-07T21:20:01.406Z,55.53
2023-08-07T21:23:03.484Z,55.66
2023-08-07T21:26:05.272Z,55.66
2023-08-07T21:29:06.850Z,55.80
2023-08-07T21:32:08.693Z,55.15
2023-08-07T21:35:13.900Z,55.43
2023-08-07T21:38:16.725Z,55.25
2023-08-07T21:41:18.978Z,55.73
2023-08-07T21:44:20.673Z,55.45
2023-08-07T21:47:22.229Z,55.59
2023-08-07T21:50:23.821Z,55.68
2023-08-07T21:53:25.376Z,55.61
2023-08-07T21:56:26.908Z,55.51
2023-08-07T21:59:29.246Z,55.76
2023-08-07T22:02:30.963Z,55.10
2023-08-07T22:05:32.609Z,55.27
2023-08-07T22:08:34.153Z,55.26
2023-08-07T22:11:35.665Z,55.14
2023-08-07T22:14:37.159Z,54.97
2023-08-07T22:17:38.888Z,55.04
2023-08-07T22:20:40.600Z,54.90
2023-08-07T22:23:42.196Z,54.98
2023-08-07T22:26:43.761Z,55.06
2023-08-07T22:29:46.029Z,54.61
2023-08-07T22:32:48.547Z,54.89
2023-08-07T22:35:50.298Z,54.89
2023-08-07T22:38:51.859Z,54.64
2023-08-07T22:41:53.528Z,54.88
2023-08-07T22:44:55.227Z,55.12
2023-08-07T22:48:03.381Z,54.61
2023-08-07T22:51:06.060Z,54.46
2023-08-07T22:54:07.570Z,54.08
2023-08-07T22:57:09.166Z,53.70
2023-08-07T23:00:11.404Z,53.67
2023-08-07T23:03:13.135Z,53.70
2023-08-07T23:06:14.796Z,54.18
2023-08-07T23:09:16.382Z,53.33
2023-08-07T23:12:18.216Z,53.01
2023-08-07T23:15:20.537Z,53.11
2023-08-07T23:18:22.122Z,52.97
2023-08-07T23:21:23.839Z,53.18
2023-08-07T23:24:25.417Z,53.07
2023-08-07T23:27:27.041Z,53.20
2023-08-07T23:30:29.974Z,53.06
2023-08-07T23:33:31.715Z,53.27
2023-08-07T23:36:33.984Z,53.43
2023-08-07T23:39:35.572Z,53.20
2023-08-07T23:42:37.121Z,53.28
2023-08-07T23:45:38.675Z,53.36
2023-08-07T23:48:40.265Z,53.51
2023-08-07T23:51:42.311Z,53.28
2023-08-07T23:54:43.901Z,53.45
2023-08-07T23:57:45.478Z,53.01
